createdAt,value
2022-08-12T00:00:05.260Z,98488.56
2022-08-12T00:02:47.467Z,98482.34
2022-08-12T00:05:31.841Z,98483.53
2022-08-12T00:08:14.021Z,98486.25
2022-08-12T00:10:56.341Z,98488.56
2022-08-12T00:13:38.536Z,98486.25
2022-08-12T00:16:23.647Z,98496.41
2022-08-12T00:19:05.852Z,98487.19
2022-08-12T00:21:48.391Z,98489.19
2022-08-12T00:24:30.513Z,98492.16
2022-08-12T00:27:13.802Z,98486.84
2022-08-12T00:29:56.859Z,98492.25
2022-08-12T00:32:50.957Z,98480.53
2022-08-12T00:35:39.093Z,98482.63
2022-08-12T00:38:22.797Z,98480.00
2022-08-12T00:41:04.958Z,98481.28
2022-08-12T00:43:37.582Z,98477.31
2022-08-12T00:46:23.513Z,98471.94
2022-08-12T00:48:56.383Z,98481.22
2022-08-12T00:51:47.594Z,98476.34
2022-08-12T00:54:17.361Z,98476.50
2022-08-12T00:56:52.193Z,98474.72
2022-08-12T00:59:24.766Z,98477.75
2022-08-12T01:02:02.283Z,98472.47
2022-08-12T01:04:59.519Z,98473.47
2022-08-12T01:07:43.356Z,98471.63
2022-08-12T01:10:29.483Z,98472.84
2022-08-12T01:13:18.519Z,98473.06
2022-08-12T01:15:52.282Z,98472.53
2022-08-12T01:18:23.605Z,98474.50
2022-08-12T01:21:09.598Z,98474.66
2022-08-12T01:24:23.014Z,98480.19
2022-08-12T01:26:58.983Z,98479.78
2022-08-12T01:29:33.065Z,98478.13
2022-08-12T01:32:08.892Z,98470.38
2022-08-12T01:34:40.227Z,98473.16
2022-08-12T01:37:11.790Z,98478.78
2022-08-12T01:40:33.785Z,98471.63
2022-08-12T01:42:48.713Z,98479.94
2022-08-12T01:45:24.682Z,98473.88
2022-08-12T01:48:08.402Z,98462.81
2022-08-12T01:50:43.869Z,98452.88
2022-08-12T01:53:17.317Z,98448.31
2022-08-12T01:55:50.504Z,98445.47
2022-08-12T01:58:32.024Z,98443.75
2022-08-12T02:01:03.908Z,98452.16
2022-08-12T02:04:04.365Z,98455.09
2022-08-12T02:06:52.054Z,98457.50
2022-08-12T02:09:48.012Z,98450.78
2022-08-12T02:12:28.544Z,98450.78
2022-08-12T02:15:13.183Z,98459.09
2022-08-12T02:18:04.054Z,98454.44
2022-08-12T02:20:52.462Z,98456.66
2022-08-12T02:23:28.238Z,98458.91
2022-08-12T02:26:01.525Z,98451.84
2022-08-12T02:28:32.384Z,98448.69
2022-08-12T02:31:09.113Z,98449.28
2022-08-12T02:33:41.651Z,98450.50
2022-08-12T02:36:11.753Z,98451.28
2022-08-12T02:38:45.808Z,98448.22
2022-08-12T02:41:18.357Z,98447.78
2022-08-12T02:43:54.585Z,98449.53
2022-08-12T02:46:32.559Z,98446.69
2022-08-12T02:49:07.768Z,98442.88
2022-08-12T02:51:44.547Z,98437.25
2022-08-12T02:54:14.854Z,98451.75
2022-08-12T02:56:47.121Z,98437.84
2022-08-12T02:59:24.485Z,98442.13
2022-08-12T03:01:58.258Z,98437.00
2022-08-12T03:04:33.860Z,98437.78
2022-08-12T03:07:14.900Z,98434.59
2022-08-12T03:10:05.337Z,98433.69
2022-08-12T03:12:44.810Z,98436.38
2022-08-12T03:15:22.940Z,98433.69
2022-08-12T03:18:26.887Z,98444.03
2022-08-12T03:20:52.594Z,98434.19
2022-08-12T03:23:29.806Z,98442.47
2022-08-12T03:26:02.903Z,98435.44
2022-08-12T03:28:46.949Z,98433.88
2022-08-12T03:31:16.893Z,98441.81
2022-08-12T03:34:02.265Z,98445.00
2022-08-12T03:36:35.755Z,98442.06
2022-08-12T03:39:35.936Z,98442.63
2022-08-12T03:42:17.069Z,98442.69
2022-08-12T03:45:08.378Z,98438.88
2022-08-12T03:47:57.677Z,98450.41
2022-08-12T03:50:43.100Z,98446.47
2022-08-12T03:53:25.728Z,98448.09
2022-08-12T03:56:08.684Z,98449.22
2022-08-12T03:58:51.828Z,98448.50
2022-08-12T04:01:23.270Z,98448.97
2022-08-12T04:03:55.888Z,98447.84
2022-08-12T04:06:35.496Z,98442.03
2022-08-12T04:09:15.930Z,98445.19
2022-08-12T04:12:00.615Z,98445.94
2022-08-12T04:14:30.853Z,98443.69
2022-08-12T04:17:01.444Z,98441.28
2022-08-12T04:19:31.546Z,98439.41
2022-08-12T04:22:04.074Z,98439.88
2022-08-12T04:24:35.690Z,98445.88
2022-08-12T04:27:08.715Z,98439.94
2022-08-12T04:30:30.137Z,98446.25
2022-08-12T04:32:29.332Z,98457.41
2022-08-12T04:34:59.148Z,98440.88
2022-08-12T04:37:58.825Z,98446.50
2022-08-12T04:40:28.033Z,98448.13
2022-08-12T04:42:58.758Z,98448.56
2022-08-12T04:45:28.584Z,98450.53
2022-08-12T04:47:58.538Z,98454.47
2022-08-12T04:50:35.689Z,98458.53
2022-08-12T04:53:13.142Z,98449.03
2022-08-12T04:55:45.967Z,98447.50
2022-08-12T04:58:15.774Z,98457.72
2022-08-12T05:00:59.629Z,98451.47
2022-08-12T05:03:46.041Z,98462.13
2022-08-12T05:06:20.853Z,98461.75
2022-08-12T05:09:00.753Z,98460.16
2022-08-12T05:11:30.802Z,98463.28
2022-08-12T05:14:03.115Z,98451.03
2022-08-12T05:16:36.015Z,98463.34
2022-08-12T05:19:06.253Z,98457.38
2022-08-12T05:21:43.296Z,98452.22
2022-08-12T05:24:15.704Z,98457.63
2022-08-12T05:26:45.433Z,98463.72
2022-08-12T05:30:06.438Z,98452.66
2022-08-12T05:32:06.859Z,98466.66
2022-08-12T05:34:36.820Z,98467.31
2022-08-12T05:37:07.083Z,98471.97
2022-08-12T05:39:39.565Z,98471.38
2022-08-12T05:42:09.775Z,98469.31
2022-08-12T05:44:39.804Z,98471.75
2022-08-12T05:47:12.113Z,98471.00
2022-08-12T05:49:42.545Z,98483.09
2022-08-12T05:52:12.383Z,98491.28
2022-08-12T05:54:56.953Z,98489.63
2022-08-12T05:57:27.430Z,98494.16
2022-08-12T05:59:57.203Z,98494.13
2022-08-12T06:02:27.047Z,98496.28
2022-08-12T06:04:57.869Z,98493.47
2022-08-12T06:08:00.910Z,98489.41
2022-08-12T06:10:31.592Z,98500.84
2022-08-12T06:13:02.692Z,98499.16
2022-08-12T06:15:33.477Z,98493.00
2022-08-12T06:18:11.449Z,98494.34
2022-08-12T06:20:43.972Z,98493.75
2022-08-12T06:23:15.486Z,98499.19
2022-08-12T06:25:47.832Z,98508.34
2022-08-12T06:28:21.340Z,98508.34
2022-08-12T06:31:22.182Z,98511.16
2022-08-12T06:33:57.870Z,98502.94
2022-08-12T06:36:34.383Z,98511.25
2022-08-12T06:39:04.186Z,98504.22
2022-08-12T06:42:04.987Z,98503.66
2022-08-12T06:44:39.612Z,98492.94
2022-08-12T06:47:09.710Z,98502.03
2022-08-12T06:49:39.474Z,98500.16
2022-08-12T06:52:09.831Z,98502.09
2022-08-12T06:54:41.321Z,98503.66
2022-08-12T06:58:07.049Z,98500.59
2022-08-12T07:00:04.256Z,98490.78
2022-08-12T07:02:37.994Z,98492.91
2022-08-12T07:05:08.698Z,98493.81
2022-08-12T07:07:39.038Z,98502.28
2022-08-12T07:10:09.795Z,98495.97
2022-08-12T07:12:42.690Z,98497.25
2022-08-12T07:15:13.548Z,98499.81
2022-08-12T07:17:43.769Z,98500.00
2022-08-12T07:20:42.583Z,98500.56
2022-08-12T07:23:08.666Z,98494.72
2022-08-12T07:25:41.453Z,98494.56
2022-08-12T07:28:17.613Z,98494.34
2022-08-12T07:30:49.411Z,98488.13
2022-08-12T07:33:22.454Z,98489.28
2022-08-12T07:35:54.253Z,98490.16
2022-08-12T07:38:30.791Z,98490.25
2022-08-12T07:41:06.347Z,98480.34
2022-08-12T07:43:40.535Z,98480.06
2022-08-12T07:46:12.942Z,98486.97
2022-08-12T07:48:45.035Z,98480.28
2022-08-12T07:51:25.216Z,98484.94
2022-08-12T07:54:00.261Z,98490.28
2022-08-12T07:56:31.610Z,98484.13
2022-08-12T07:59:04.136Z,98470.75
2022-08-12T08:01:38.081Z,98480.28
2022-08-12T08:04:21.670Z,98473.28
2022-08-12T08:06:52.455Z,98476.47
2022-08-12T08:09:24.976Z,98474.13
2022-08-12T08:12:08.054Z,98472.34
2022-08-12T08:14:40.741Z,98462.41
2022-08-12T08:17:10.577Z,98470.13
2022-08-12T08:20:02.151Z,98460.09
2022-08-12T08:22:41.708Z,98458.75
2022-08-12T08:25:35.338Z,98458.28
2022-08-12T08:28:05.517Z,98465.25
2022-08-12T08:30:39.158Z,98458.22
2022-08-12T08:33:23.453Z,98464.63
2022-08-12T08:35:55.243Z,98455.44
2022-08-12T08:38:32.992Z,98462.03
2022-08-12T08:42:16.165Z,98456.50
2022-08-12T08:44:20.685Z,98450.81
2022-08-12T08:46:55.752Z,98456.78
2022-08-12T08:49:25.854Z,98455.59
2022-08-12T08:51:55.898Z,98456.84
2022-08-12T08:54:25.691Z,98456.44
2022-08-12T08:56:55.440Z,98457.69
2022-08-12T08:59:25.283Z,98460.72
2022-08-12T09:01:58.056Z,98459.47
2022-08-12T09:05:12.753Z,98451.75
2022-08-12T09:07:51.906Z,98451.06
2022-08-12T09:10:30.495Z,98453.06
2022-08-12T09:13:19.319Z,98450.91
2022-08-12T09:16:02.343Z,98455.09
2022-08-12T09:18:35.786Z,98459.34
2022-08-12T09:21:06.574Z,98464.91
2022-08-12T09:23:59.614Z,98443.31
2022-08-12T09:26:28.991Z,98445.28
2022-08-12T09:29:00.790Z,98432.56
2022-08-12T09:32:04.157Z,98428.25
2022-08-12T09:34:28.937Z,98443.97
2022-08-12T09:37:18.547Z,98449.50
2022-08-12T09:40:05.578Z,98434.75
2022-08-12T09:46:06.718Z,98420.09
2022-08-12T09:48:44.441Z,98429.25
2022-08-12T09:51:22.175Z,98426.16
2022-08-12T09:54:08.506Z,98419.19
2022-08-12T09:57:00.399Z,98420.63
2022-08-12T10:00:17.899Z,98413.03
2022-08-12T10:02:43.900Z,98408.59
2022-08-12T10:05:17.841Z,98392.66
2022-08-12T10:07:52.916Z,98404.94
2022-08-12T10:10:25.160Z,98395.72
2022-08-12T10:13:34.246Z,98400.63
2022-08-12T10:16:06.433Z,98395.84
2022-08-12T10:18:51.805Z,98387.56
2022-08-12T10:21:24.191Z,98393.38
2022-08-12T10:24:11.106Z,98383.56
2022-08-12T10:26:55.329Z,98373.34
2022-08-12T10:30:03.290Z,98386.66
2022-08-12T10:32:44.814Z,98370.09
2022-08-12T10:35:17.609Z,98378.28
2022-08-12T10:38:38.615Z,98381.03
2022-08-12T10:41:04.034Z,98379.28
2022-08-12T10:43:55.795Z,98359.53
2022-08-12T10:46:31.397Z,98373.06
2022-08-12T10:49:06.511Z,98361.88
2022-08-12T10:52:32.351Z,98362.84
2022-08-12T10:54:43.370Z,98355.38
2022-08-12T10:57:18.205Z,98371.88
2022-08-12T11:00:34.110Z,98354.16
2022-08-12T11:04:24.604Z,98355.69
2022-08-12T11:07:05.152Z,98362.38
2022-08-12T11:08:46.534Z,98342.31
2022-08-12T11:12:35.593Z,98340.53
2022-08-12T11:14:49.211Z,98337.19
2022-08-12T11:17:43.462Z,98342.31
2022-08-12T11:19:57.273Z,98346.66
2022-08-12T11:22:27.033Z,98334.97
2022-08-12T11:24:59.651Z,98336.44
2022-08-12T11:27:29.653Z,98340.63
2022-08-12T11:30:06.837Z,98331.56
2022-08-12T11:32:51.794Z,98327.97
2022-08-12T11:35:21.860Z,98321.00
2022-08-12T11:37:57.846Z,98322.31
2022-08-12T11:40:28.884Z,98329.47
2022-08-12T11:43:18.618Z,98326.69
2022-08-12T11:45:53.100Z,98317.16
2022-08-12T11:48:26.986Z,98315.06
2022-08-12T11:50:57.520Z,98320.69
2022-08-12T11:53:59.965Z,98311.91
2022-08-12T11:56:17.009Z,98303.03
2022-08-12T12:01:58.658Z,98308.69
2022-08-12T12:02:01.388Z,98312.19
2022-08-12T12:04:29.659Z,98309.69
2022-08-12T12:07:07.224Z,98298.69
2022-08-12T12:09:53.105Z,98303.56
2022-08-12T12:12:26.025Z,98313.09
2022-08-12T12:14:58.623Z,98303.81
2022-08-12T12:17:38.483Z,98302.81
2022-08-12T12:20:11.647Z,98296.38
2022-08-12T12:22:45.096Z,98290.50
2022-08-12T12:25:15.501Z,98295.81
2022-08-12T12:28:05.913Z,98303.22
2022-08-12T12:30:36.431Z,98296.31
2022-08-12T12:33:18.045Z,98292.16
2022-08-12T12:36:16.629Z,98293.09
2022-08-12T12:38:37.966Z,98297.97
2022-08-12T12:41:16.916Z,98294.66
2022-08-12T12:43:56.526Z,98285.03
2022-08-12T12:46:33.698Z,98290.63
2022-08-12T12:49:06.909Z,98279.31
2022-08-12T12:51:58.135Z,98281.31
2022-08-12T12:54:30.821Z,98286.31
2022-08-12T12:57:01.924Z,98283.22
2022-08-12T12:59:54.661Z,98276.16
2022-08-12T13:02:31.419Z,98273.88
2022-08-12T13:05:14.974Z,98279.97
2022-08-12T13:07:49.261Z,98272.56
2022-08-12T13:10:30.783Z,98263.78
2022-08-12T13:14:09.432Z,98275.31
2022-08-12T13:15:59.052Z,98268.84
2022-08-12T13:18:36.526Z,98265.09
2022-08-12T13:21:15.693Z,98254.53
2022-08-12T13:24:02.800Z,98256.63
2022-08-12T13:26:40.796Z,98253.09
2022-08-12T13:29:11.576Z,98251.28
2022-08-12T13:32:17.420Z,98252.50
2022-08-12T13:34:35.626Z,98254.63
2022-08-12T13:37:10.152Z,98244.66
2022-08-12T13:39:40.866Z,98245.06
2022-08-12T13:42:13.673Z,98250.28
2022-08-12T13:44:46.287Z,98245.25
2022-08-12T13:47:19.415Z,98239.91
2022-08-12T13:49:54.543Z,98246.00
2022-08-12T13:52:28.484Z,98250.81
2022-08-12T13:54:58.273Z,98249.28
2022-08-12T13:57:44.610Z,98256.13
2022-08-12T14:00:18.163Z,98246.84
2022-08-12T14:02:48.023Z,98240.38
2022-08-12T14:05:37.437Z,98238.94
2022-08-12T14:08:14.365Z,98242.34
2022-08-12T14:10:55.959Z,98232.41
2022-08-12T14:14:05.836Z,98231.91
2022-08-12T14:16:37.934Z,98225.25
2022-08-12T14:19:18.411Z,98232.97
2022-08-12T14:22:01.139Z,98231.91
2022-08-12T14:24:40.571Z,98231.78
2022-08-12T14:27:11.740Z,98226.47
2022-08-12T14:30:05.164Z,98230.81
2022-08-12T14:32:37.149Z,98225.06
2022-08-12T14:35:11.250Z,98223.34
2022-08-12T14:37:57.864Z,98221.81
2022-08-12T14:40:32.694Z,98212.66
2022-08-12T14:43:06.247Z,98227.28
2022-08-12T14:45:45.091Z,98227.84
2022-08-12T14:48:24.153Z,98228.59
2022-08-12T14:52:07.831Z,98234.44
2022-08-12T14:55:28.342Z,98231.47
2022-08-12T14:59:57.809Z,98227.97
2022-08-12T15:02:28.752Z,98234.69
2022-08-12T15:04:59.854Z,98236.47
2022-08-12T15:07:33.383Z,98225.63
2022-08-12T15:10:13.835Z,98222.28
2022-08-12T15:12:50.626Z,98226.81
2022-08-12T15:15:22.984Z,98213.94
2022-08-12T15:17:59.260Z,98207.94
2022-08-12T15:20:37.346Z,98213.56
2022-08-12T15:23:18.118Z,98206.34
2022-08-12T15:26:02.695Z,98204.66
2022-08-12T15:28:37.616Z,98194.13
2022-08-12T15:31:09.562Z,98216.22
2022-08-12T15:33:58.127Z,98204.00
2022-08-12T15:36:53.615Z,98202.63
2022-08-12T15:39:17.937Z,98211.94
2022-08-12T15:41:50.306Z,98225.25
2022-08-12T15:44:38.130Z,98227.88
2022-08-12T15:47:12.698Z,98224.75
2022-08-12T15:50:00.711Z,98223.53
2022-08-12T15:52:32.344Z,98221.44
2022-08-12T15:55:06.292Z,98212.50
2022-08-12T15:57:53.214Z,98221.84
2022-08-12T16:00:32.830Z,98221.53
2022-08-12T16:03:05.589Z,98222.13
2022-08-12T16:06:11.882Z,98225.63
2022-08-12T16:08:36.899Z,98218.38
2022-08-12T16:11:07.430Z,98222.31
2022-08-12T16:13:44.757Z,98218.31
2022-08-12T16:16:24.152Z,98215.56
2022-08-12T16:18:59.651Z,98214.09
2022-08-12T16:21:51.203Z,98217.88
2022-08-12T16:24:22.952Z,98224.00
2022-08-12T16:26:55.055Z,98213.09
2022-08-12T16:29:49.324Z,98215.88
2022-08-12T16:32:31.245Z,98215.31
2022-08-12T16:35:02.211Z,98212.72
2022-08-12T16:38:25.013Z,98208.25
2022-08-12T16:40:23.398Z,98215.31
2022-08-12T16:43:02.226Z,98210.97
2022-08-12T16:46:05.002Z,98207.75
2022-08-12T16:48:35.851Z,98202.16
2022-08-12T16:51:09.514Z,98203.41
2022-08-12T16:53:44.776Z,98203.34
2022-08-12T16:56:17.183Z,98202.97
2022-08-12T16:58:47.516Z,98196.84
2022-08-12T17:01:19.607Z,98190.47
2022-08-12T17:04:08.702Z,98197.16
2022-08-12T17:06:41.749Z,98197.34
2022-08-12T17:09:17.197Z,98199.38
2022-08-12T17:11:49.777Z,98196.59
2022-08-12T17:14:23.497Z,98199.88
2022-08-12T17:16:55.287Z,98189.34
2022-08-12T17:20:29.356Z,98191.06
2022-08-12T17:22:21.591Z,98192.13
2022-08-12T17:24:55.646Z,98191.28
2022-08-12T17:27:26.414Z,98192.53
2022-08-12T17:30:05.149Z,98190.91
2022-08-12T17:32:36.992Z,98183.25
2022-08-12T17:35:30.035Z,98188.78
2022-08-12T17:38:11.666Z,98183.16
2022-08-12T17:40:42.141Z,98189.47
2022-08-12T17:43:56.392Z,98196.03
2022-08-12T17:46:13.001Z,98196.41
2022-08-12T17:48:55.279Z,98195.84
2022-08-12T17:51:34.637Z,98196.97
2022-08-12T17:54:20.495Z,98207.09
2022-08-12T17:56:54.794Z,98207.50
2022-08-12T17:59:48.781Z,98206.16
2022-08-12T18:02:25.641Z,98206.03
2022-08-12T18:05:09.486Z,98202.66
2022-08-12T18:07:43.782Z,98208.44
2022-08-12T18:10:14.729Z,98206.31
2022-08-12T18:12:42.753Z,98208.34
2022-08-12T18:15:26.930Z,98210.84
2022-08-12T18:18:16.793Z,98216.84
2022-08-12T18:20:47.320Z,98216.44
2022-08-12T18:23:24.184Z,98210.06
2022-08-12T18:26:15.237Z,98213.84
2022-08-12T18:28:48.558Z,98218.06
2022-08-12T18:31:22.144Z,98216.72
2022-08-12T18:33:52.845Z,98216.66
2022-08-12T18:36:23.531Z,98224.47
2022-08-12T18:38:59.438Z,98217.50
2022-08-12T18:41:32.060Z,98220.22
2022-08-12T18:44:09.315Z,98222.44
2022-08-12T18:46:53.844Z,98230.84
2022-08-12T18:49:35.031Z,98224.06
2022-08-12T18:52:11.597Z,98223.00
2022-08-12T18:54:48.712Z,98229.75
2022-08-12T18:58:05.997Z,98228.22
2022-08-12T19:00:18.873Z,98235.34
2022-08-12T19:02:53.988Z,98232.75
2022-08-12T19:05:25.054Z,98243.75
2022-08-12T19:08:15.927Z,98242.97
2022-08-12T19:10:50.529Z,98250.44
2022-08-12T19:13:34.841Z,98248.88
2022-08-12T19:16:12.760Z,98262.22
2022-08-12T19:18:44.477Z,98271.22
2022-08-12T19:21:16.645Z,98272.00
2022-08-12T19:24:09.752Z,98275.41
2022-08-12T19:26:42.561Z,98275.91
2022-08-12T19:29:13.467Z,98275.91
2022-08-12T19:31:57.242Z,98282.44
2022-08-12T19:37:38.535Z,98274.97
2022-08-12T19:40:30.771Z,98277.13
2022-08-12T19:43:17.313Z,98277.28
2022-08-12T19:45:53.619Z,98278.38
2022-08-12T19:48:27.491Z,98282.25
2022-08-12T19:50:57.818Z,98282.22
2022-08-12T19:53:29.211Z,98283.50
2022-08-12T19:55:59.740Z,98285.19
2022-08-12T19:58:32.135Z,98285.50
2022-08-12T20:01:02.719Z,98292.47
2022-08-12T20:03:41.450Z,98296.69
2022-08-12T20:06:15.631Z,98290.78
2022-08-12T20:08:56.675Z,98291.41
2022-08-12T20:12:12.525Z,98296.69
2022-08-12T20:14:21.810Z,98293.09
2022-08-12T20:17:02.678Z,98283.78
2022-08-12T20:20:00.960Z,98291.84
2022-08-12T20:22:29.402Z,98298.19
2022-08-12T20:25:01.579Z,98294.75
2022-08-12T20:28:04.173Z,98294.00
2022-08-12T20:30:37.885Z,98293.03
2022-08-12T20:33:23.217Z,98297.03
2022-08-12T20:36:13.261Z,98299.31
2022-08-12T20:38:52.590Z,98295.16
2022-08-12T20:41:25.305Z,98304.25
2022-08-12T20:43:57.492Z,98312.31
2022-08-12T20:46:31.881Z,98312.16
2022-08-12T20:49:17.653Z,98305.59
2022-08-12T20:51:55.349Z,98301.25
2022-08-12T20:54:32.748Z,98300.00
2022-08-12T20:57:07.527Z,98302.28
2022-08-12T20:59:47.911Z,98303.81
2022-08-12T21:02:24.709Z,98305.22
2022-08-12T21:05:23.373Z,98295.28
2022-08-12T21:07:53.135Z,98301.31
2022-08-12T21:10:26.528Z,98300.66
2022-08-12T21:12:56.981Z,98309.56
2022-08-12T21:15:30.345Z,98300.41
2022-08-12T21:18:28.373Z,98302.09
2022-08-12T21:21:00.260Z,98293.34
2022-08-12T21:23:31.118Z,98295.47
2022-08-12T21:26:11.437Z,98296.81
2022-08-12T21:28:58.089Z,98296.97
2022-08-12T21:32:36.495Z,98299.38
2022-08-12T21:34:29.204Z,98292.38
2022-08-12T21:37:12.951Z,98295.75
2022-08-12T21:39:51.984Z,98296.09
2022-08-12T21:42:28.071Z,98304.09
2022-08-12T21:45:46.085Z,98308.13
2022-08-12T21:47:53.345Z,98309.88
2022-08-12T21:50:29.477Z,98311.50
2022-08-12T21:53:02.417Z,98315.41
2022-08-12T21:55:40.470Z,98302.75
2022-08-12T21:58:16.716Z,98310.91
2022-08-12T22:00:46.579Z,98313.16
2022-08-12T22:04:03.497Z,98307.94
2022-08-12T22:06:31.114Z,98312.53
2022-08-12T22:09:15.910Z,98315.75
2022-08-12T22:11:57.057Z,98312.75
2022-08-12T22:14:30.412Z,98319.00
2022-08-12T22:17:05.253Z,98312.88
2022-08-12T22:19:36.601Z,98317.44
2022-08-12T22:22:10.127Z,98309.34
2022-08-12T22:24:42.329Z,98321.06
2022-08-12T22:27:31.604Z,98320.84
2022-08-12T22:30:16.330Z,98318.97
2022-08-12T22:32:54.919Z,98329.22
2022-08-12T22:35:56.153Z,98324.53
2022-08-12T22:38:31.340Z,98324.53
2022-08-12T22:41:03.086Z,98313.31
2022-08-12T22:44:00.604Z,98319.97
2022-08-12T22:46:51.945Z,98316.63
2022-08-12T22:49:26.029Z,98317.94
2022-08-12T22:52:11.111Z,98317.28
2022-08-12T22:54:58.026Z,98317.59
2022-08-12T22:57:49.150Z,98318.69
2022-08-12T23:00:27.910Z,98309.44
2022-08-12T23:03:02.665Z,98303.63
2022-08-12T23:06:09.506Z,98315.09
2022-08-12T23:08:31.909Z,98306.50
2022-08-12T23:11:08.343Z,98311.06
2022-08-12T23:13:57.006Z,98314.72
2022-08-12T23:16:33.488Z,98316.06
2022-08-12T23:19:10.952Z,98323.34
2022-08-12T23:22:05.471Z,98320.44
2022-08-12T23:24:56.242Z,98312.47
2022-08-12T23:27:51.305Z,98313.00
2022-08-12T23:30:32.394Z,98305.50
2022-08-12T23:33:13.267Z,98307.41
2022-08-12T23:36:02.279Z,98306.81
2022-08-12T23:38:34.787Z,98303.00
2022-08-12T23:41:06.125Z,98296.59
2022-08-12T23:43:41.006Z,98303.28
2022-08-12T23:46:22.197Z,98300.94
2022-08-12T23:48:58.619Z,98297.16
2022-08-12T23:51:32.059Z,98303.84
2022-08-12T23:54:07.383Z,98302.69
2022-08-12T23:56:38.732Z,98312.41
2022-08-12T23:59:16.707Z,98307.63
